createdAt,value
2019-03-30T00:02:06.257Z,21.00
2019-03-30T00:04:34.723Z,21.60
2019-03-30T00:07:03.196Z,23.10
2019-03-30T00:09:31.688Z,23.33
2019-03-30T00:12:00.148Z,23.17
2019-03-30T00:14:28.598Z,24.07
2019-03-30T00:16:57.115Z,23.90
2019-03-30T00:19:34.894Z,22.17
2019-03-30T00:21:55.942Z,23.67
2019-03-30T00:24:24.470Z,25.20
2019-03-30T00:26:53.071Z,23.80
2019-03-30T00:29:21.539Z,21.40
2019-03-30T00:31:50.035Z,24.10
2019-03-30T00:34:18.501Z,22.30
2019-03-30T00:36:47.175Z,24.17
2019-03-30T00:39:15.647Z,24.40
2019-03-30T00:41:44.123Z,23.47
2019-03-30T00:44:12.595Z,26.30
2019-03-30T00:46:41.112Z,23.27
2019-03-30T00:49:09.568Z,24.60
2019-03-30T00:51:38.187Z,21.80
2019-03-30T00:54:06.694Z,22.37
2019-03-30T00:56:35.165Z,23.70
2019-03-30T00:59:03.620Z,26.40
2019-03-30T01:01:32.197Z,23.50
2019-03-30T01:04:00.677Z,25.10
2019-03-30T01:06:29.214Z,22.67
2019-03-30T01:08:57.708Z,23.50
2019-03-30T01:11:26.180Z,22.00
2019-03-30T01:13:54.638Z,23.10
2019-03-30T01:16:23.146Z,26.67
2019-03-30T01:18:51.603Z,22.13
2019-03-30T01:21:20.066Z,25.50
2019-03-30T01:23:48.670Z,22.73
2019-03-30T01:26:17.133Z,24.87
2019-03-30T01:28:45.595Z,25.67
2019-03-30T01:31:14.099Z,25.70
2019-03-30T01:33:42.569Z,23.73
2019-03-30T01:36:11.098Z,25.27
2019-03-30T01:38:39.593Z,24.27
2019-03-30T01:41:08.214Z,24.30
2019-03-30T01:43:36.816Z,24.47
2019-03-30T01:46:05.323Z,24.60
2019-03-30T01:48:33.788Z,24.50
2019-03-30T01:51:02.259Z,24.40
2019-03-30T01:53:30.787Z,23.80
2019-03-30T01:55:59.250Z,25.40
2019-03-30T01:58:27.723Z,24.70
2019-03-30T02:00:56.238Z,24.83
2019-03-30T02:03:24.716Z,25.33
2019-03-30T02:05:53.174Z,24.90
2019-03-30T02:08:21.671Z,26.50
2019-03-30T02:10:50.129Z,27.73
2019-03-30T02:13:18.582Z,26.27
2019-03-30T02:15:47.085Z,27.93
2019-03-30T02:18:15.544Z,27.47
2019-03-30T02:20:46.429Z,26.17
2019-03-30T02:23:14.933Z,28.83
2019-03-30T02:25:43.785Z,25.93
2019-03-30T02:28:12.297Z,28.63
2019-03-30T02:30:40.800Z,25.30
2019-03-30T02:33:09.374Z,25.77
2019-03-30T02:35:37.814Z,25.40
2019-03-30T02:38:06.402Z,26.73
2019-03-30T02:40:34.849Z,25.47
2019-03-30T02:43:03.326Z,27.97
2019-03-30T02:45:31.840Z,27.30
2019-03-30T02:48:00.320Z,24.87
2019-03-30T02:50:28.796Z,24.50
2019-03-30T02:52:57.288Z,27.17
2019-03-30T02:55:25.764Z,28.20
2019-03-30T02:57:54.218Z,27.10
2019-03-30T03:00:22.710Z,27.60
2019-03-30T03:02:51.167Z,26.30
2019-03-30T03:05:20.011Z,27.00
2019-03-30T03:07:48.524Z,28.90
2019-03-30T03:10:17.148Z,27.87
2019-03-30T03:12:45.650Z,28.67
2019-03-30T03:15:14.315Z,28.20
2019-03-30T03:17:42.785Z,27.70
2019-03-30T03:20:11.310Z,28.50
2019-03-30T03:22:39.815Z,28.73
2019-03-30T03:25:08.560Z,26.73
2019-03-30T03:27:37.445Z,29.83
2019-03-30T03:30:06.674Z,28.20
2019-03-30T03:32:35.185Z,27.40
2019-03-30T03:35:03.635Z,28.63
2019-03-30T03:37:44.834Z,27.43
2019-03-30T03:40:02.311Z,29.77
2019-03-30T03:42:30.762Z,28.10
2019-03-30T03:44:59.290Z,27.57
2019-03-30T03:47:27.753Z,26.70
2019-03-30T03:49:56.211Z,29.00
2019-03-30T03:52:24.701Z,28.20
2019-03-30T03:54:53.939Z,29.60
2019-03-30T03:57:22.570Z,32.70
2019-03-30T03:59:52.338Z,28.27
2019-03-30T04:02:21.581Z,31.73
2019-03-30T04:04:50.519Z,31.47
2019-03-30T04:07:19.506Z,29.50
2019-03-30T04:09:49.753Z,28.70
2019-03-30T04:12:18.791Z,28.73
2019-03-30T04:14:50.469Z,29.10
2019-03-30T04:17:19.006Z,31.70
2019-03-30T04:19:47.460Z,31.13
2019-03-30T04:22:15.979Z,31.33
2019-03-30T04:24:44.460Z,30.37
2019-03-30T04:27:12.922Z,28.00
2019-03-30T04:29:41.804Z,30.20
2019-03-30T04:32:10.274Z,31.47
2019-03-30T04:34:38.728Z,30.53
2019-03-30T04:37:07.222Z,29.47
2019-03-30T04:39:35.687Z,28.80
2019-03-30T04:42:04.216Z,28.30
2019-03-30T04:44:32.733Z,30.13
2019-03-30T04:47:01.208Z,31.00
2019-03-30T04:49:29.685Z,29.40
2019-03-30T04:51:58.334Z,31.87
2019-03-30T04:54:26.937Z,31.77
2019-03-30T04:56:55.397Z,30.40
2019-03-30T04:59:23.901Z,28.13
2019-03-30T05:01:52.383Z,31.07
2019-03-30T05:04:20.863Z,31.10
2019-03-30T05:06:49.385Z,32.03
2019-03-30T05:09:17.871Z,32.40
2019-03-30T05:11:46.344Z,31.53
2019-03-30T05:14:16.496Z,32.77
2019-03-30T05:16:44.987Z,31.67
2019-03-30T05:19:13.458Z,31.77
2019-03-30T05:21:41.941Z,29.87
2019-03-30T05:24:10.413Z,30.13
2019-03-30T05:26:38.883Z,30.60
2019-03-30T05:29:07.387Z,30.90
2019-03-30T05:31:36.079Z,29.87
2019-03-30T05:34:04.645Z,29.87
2019-03-30T05:36:33.179Z,31.20
2019-03-30T05:39:01.643Z,29.23
2019-03-30T05:41:30.103Z,27.00
2019-03-30T05:43:58.584Z,27.90
2019-03-30T05:46:27.050Z,28.33
2019-03-30T05:48:55.521Z,28.57
2019-03-30T05:51:24.018Z,30.17
2019-03-30T05:53:52.487Z,21.67
2019-03-30T05:56:20.958Z,24.40
2019-03-30T05:58:49.468Z,28.47
2019-03-30T06:01:17.928Z,29.63
2019-03-30T06:03:46.471Z,28.20
2019-03-30T06:06:14.950Z,28.20
2019-03-30T06:08:43.423Z,29.23
2019-03-30T06:11:11.882Z,28.07
2019-03-30T06:13:40.395Z,28.37
2019-03-30T06:16:08.867Z,29.03
2019-03-30T06:18:37.322Z,28.27
2019-03-30T06:21:05.865Z,28.50
2019-03-30T06:23:34.321Z,26.10
2019-03-30T06:26:02.781Z,29.47
2019-03-30T06:28:31.283Z,33.40
2019-03-30T06:30:59.738Z,27.57
2019-03-30T06:33:28.305Z,28.03
2019-03-30T06:35:56.794Z,32.03
2019-03-30T06:38:25.265Z,29.90
2019-03-30T06:40:53.726Z,27.03
2019-03-30T06:43:22.231Z,28.07
2019-03-30T06:45:50.700Z,30.33
2019-03-30T06:48:19.171Z,26.90
2019-03-30T06:50:48.326Z,29.27
2019-03-30T06:53:16.807Z,29.17
2019-03-30T06:55:45.267Z,28.17
2019-03-30T06:58:13.763Z,26.20
2019-03-30T07:00:42.224Z,28.80
2019-03-30T07:03:10.690Z,26.63
2019-03-30T07:05:39.928Z,26.90
2019-03-30T07:08:11.557Z,27.03
2019-03-30T07:10:40.046Z,27.37
2019-03-30T07:13:08.922Z,27.60
2019-03-30T07:15:40.566Z,30.80
2019-03-30T07:18:09.109Z,27.83
2019-03-30T07:20:37.595Z,29.30
2019-03-30T07:23:12.285Z,26.70
2019-03-30T07:25:36.253Z,26.30
2019-03-30T07:28:04.751Z,26.90
2019-03-30T07:30:33.208Z,26.57
2019-03-30T07:33:01.674Z,26.53
2019-03-30T07:35:31.253Z,28.97
2019-03-30T07:37:59.727Z,29.37
2019-03-30T07:40:28.218Z,27.77
2019-03-30T07:42:56.802Z,25.47
2019-03-30T07:45:25.278Z,26.33
2019-03-30T07:47:53.749Z,27.80
2019-03-30T07:50:22.317Z,28.17
2019-03-30T07:52:50.786Z,29.57
2019-03-30T07:55:19.252Z,26.70
2019-03-30T07:57:47.878Z,27.70
2019-03-30T08:00:16.418Z,26.17
2019-03-30T08:02:44.880Z,27.53
2019-03-30T08:05:13.633Z,25.97
2019-03-30T08:07:42.110Z,27.20
2019-03-30T08:10:10.837Z,27.33
2019-03-30T08:12:39.340Z,27.67
2019-03-30T08:15:08.859Z,28.40
2019-03-30T08:17:37.319Z,28.23
2019-03-30T08:20:07.368Z,26.03
2019-03-30T08:22:35.834Z,27.63
2019-03-30T08:25:05.926Z,26.40
2019-03-30T08:27:34.421Z,28.10
2019-03-30T08:30:03.065Z,26.57
2019-03-30T08:32:31.537Z,26.43
2019-03-30T08:35:00.036Z,26.60
2019-03-30T08:37:28.782Z,26.13
2019-03-30T08:39:57.261Z,26.40
2019-03-30T08:42:25.784Z,26.13
2019-03-30T08:44:54.256Z,22.60
2019-03-30T08:47:22.715Z,25.90
2019-03-30T08:49:51.225Z,25.93
2019-03-30T08:52:19.686Z,27.60
2019-03-30T08:54:49.627Z,24.43
2019-03-30T08:57:18.108Z,24.17
2019-03-30T08:59:46.586Z,24.80
2019-03-30T09:02:15.465Z,23.97
2019-03-30T09:04:44.040Z,20.57
2019-03-30T09:07:12.516Z,23.77
2019-03-30T09:09:40.988Z,20.80
2019-03-30T09:12:09.514Z,21.90
2019-03-30T09:14:37.999Z,21.37
2019-03-30T09:17:06.484Z,23.00
2019-03-30T09:19:35.021Z,23.03
2019-03-30T09:22:03.566Z,22.93
2019-03-30T09:24:32.043Z,24.10
2019-03-30T09:27:00.559Z,21.13
2019-03-30T09:29:29.027Z,21.60
2019-03-30T09:31:57.501Z,21.63
2019-03-30T09:34:26.004Z,24.30
2019-03-30T09:36:54.708Z,22.20
2019-03-30T09:39:23.256Z,23.47
2019-03-30T09:41:51.739Z,22.40
2019-03-30T09:44:21.942Z,23.20
2019-03-30T09:46:50.414Z,21.97
2019-03-30T09:49:18.885Z,22.10
2019-03-30T09:51:47.349Z,20.83
2019-03-30T09:54:23.536Z,22.23
2019-03-30T09:56:46.046Z,21.00
2019-03-30T09:59:14.538Z,21.93
2019-03-30T10:01:43.026Z,23.33
2019-03-30T10:04:11.524Z,21.90
2019-03-30T10:06:40.002Z,24.07
2019-03-30T10:09:08.555Z,21.70
2019-03-30T10:11:37.093Z,22.33
2019-03-30T10:14:05.635Z,22.63
2019-03-30T10:16:34.135Z,24.80
2019-03-30T10:19:02.606Z,25.37
2019-03-30T10:21:31.077Z,23.90
2019-03-30T10:23:59.581Z,23.37
2019-03-30T10:26:28.062Z,25.20
2019-03-30T10:28:56.625Z,27.73
2019-03-30T10:31:25.126Z,26.10
2019-03-30T10:33:53.607Z,24.67
2019-03-30T10:36:22.093Z,27.40
2019-03-30T10:38:50.627Z,26.53
2019-03-30T10:41:19.106Z,27.23
2019-03-30T10:43:47.567Z,26.83
2019-03-30T10:46:16.078Z,27.90
2019-03-30T10:48:44.551Z,23.97
2019-03-30T10:51:13.026Z,28.10
2019-03-30T10:53:41.543Z,25.70
2019-03-30T10:56:10.008Z,26.50
2019-03-30T10:58:38.490Z,24.80
2019-03-30T11:01:06.983Z,28.13
2019-03-30T11:03:35.470Z,26.40
2019-03-30T11:06:03.941Z,26.23
2019-03-30T11:08:32.466Z,26.60
2019-03-30T11:11:00.946Z,25.70
2019-03-30T11:13:29.449Z,24.03
2019-03-30T11:15:57.960Z,26.00
2019-03-30T11:18:26.458Z,23.37
2019-03-30T11:20:54.932Z,21.87
2019-03-30T11:23:23.473Z,24.80
2019-03-30T11:25:51.921Z,24.53
2019-03-30T11:28:20.988Z,23.00
2019-03-30T11:30:49.483Z,19.47
2019-03-30T11:33:17.949Z,20.90
2019-03-30T11:35:46.517Z,21.67
2019-03-30T11:38:15.256Z,22.57
2019-03-30T11:40:43.730Z,19.60
2019-03-30T11:43:12.202Z,19.50
2019-03-30T11:45:40.802Z,19.37
2019-03-30T11:48:09.271Z,19.70
2019-03-30T11:50:37.749Z,18.57
2019-03-30T11:53:06.276Z,19.07
2019-03-30T11:55:34.741Z,19.03
2019-03-30T11:58:03.233Z,17.67
2019-03-30T12:00:31.748Z,17.43
2019-03-30T12:03:00.289Z,18.43
2019-03-30T12:05:28.782Z,18.37
2019-03-30T12:07:57.359Z,15.20
2019-03-30T12:10:25.866Z,16.47
2019-03-30T12:12:54.335Z,15.73
2019-03-30T12:15:22.852Z,16.57
2019-03-30T12:17:51.334Z,15.93
2019-03-30T12:20:19.869Z,16.13
2019-03-30T12:22:48.396Z,14.10
2019-03-30T12:25:16.960Z,14.83
2019-03-30T12:27:45.474Z,14.97
2019-03-30T12:30:14.097Z,14.20
2019-03-30T12:32:42.570Z,13.93
2019-03-30T12:35:11.159Z,13.57
2019-03-30T12:37:39.644Z,15.13
2019-03-30T12:40:09.146Z,14.60
2019-03-30T12:42:37.623Z,14.80
2019-03-30T12:45:07.875Z,13.73
2019-03-30T12:47:36.421Z,12.93
2019-03-30T12:50:06.622Z,14.30
2019-03-30T12:52:35.191Z,12.80
2019-03-30T12:55:03.866Z,13.47
2019-03-30T12:57:32.471Z,11.97
2019-03-30T13:00:00.961Z,15.10
2019-03-30T13:02:29.493Z,11.43
2019-03-30T13:04:58.130Z,11.63
2019-03-30T13:07:26.638Z,12.43
2019-03-30T13:09:55.109Z,13.43
2019-03-30T13:12:23.574Z,12.07
2019-03-30T13:14:52.086Z,12.43
2019-03-30T13:17:20.552Z,12.37
2019-03-30T13:19:49.030Z,13.70
2019-03-30T13:22:17.526Z,12.63
2019-03-30T13:24:45.993Z,13.43
2019-03-30T13:27:14.476Z,12.50
2019-03-30T13:29:42.964Z,10.70
2019-03-30T13:32:11.441Z,12.90
2019-03-30T13:34:39.915Z,13.00
2019-03-30T13:37:20.051Z,12.13
2019-03-30T13:39:48.565Z,12.60
2019-03-30T13:42:17.132Z,12.73
2019-03-30T13:44:45.614Z,12.60
2019-03-30T13:47:14.079Z,12.73
2019-03-30T13:49:42.559Z,12.43
2019-03-30T13:52:11.074Z,13.40
2019-03-30T13:54:39.697Z,13.63
2019-03-30T13:57:08.197Z,12.37
2019-03-30T13:59:37.718Z,12.93
2019-03-30T14:02:06.185Z,12.20
2019-03-30T14:04:34.650Z,11.80
2019-03-30T14:07:03.141Z,11.67
2019-03-30T14:09:31.606Z,11.40
2019-03-30T14:12:00.072Z,12.17
2019-03-30T14:14:28.607Z,11.60
2019-03-30T14:16:57.078Z,12.00
2019-03-30T14:19:25.558Z,11.30
2019-03-30T14:21:54.061Z,13.37
2019-03-30T14:24:22.526Z,11.60
2019-03-30T14:26:51.010Z,12.83
2019-03-30T14:29:19.534Z,13.13
2019-03-30T14:31:48.051Z,11.97
2019-03-30T14:34:16.482Z,13.10
2019-03-30T14:36:44.988Z,14.67
2019-03-30T14:39:13.459Z,15.60
2019-03-30T14:41:41.929Z,15.70
2019-03-30T14:44:10.702Z,16.30
2019-03-30T14:46:39.218Z,14.53
2019-03-30T14:49:07.703Z,16.40
2019-03-30T14:51:36.297Z,15.67
2019-03-30T14:54:04.850Z,15.10
2019-03-30T14:56:44.961Z,14.77
2019-03-30T14:59:10.183Z,16.97
2019-03-30T15:01:33.756Z,16.63
2019-03-30T15:04:02.223Z,18.90
2019-03-30T15:06:30.732Z,16.87
2019-03-30T15:08:59.202Z,15.43
2019-03-30T15:11:27.775Z,14.87
2019-03-30T15:13:56.283Z,15.83
2019-03-30T15:16:24.746Z,14.80
2019-03-30T15:18:53.274Z,14.50
2019-03-30T15:21:21.720Z,13.80
2019-03-30T15:23:50.183Z,14.60
2019-03-30T15:26:21.972Z,13.23
2019-03-30T15:28:48.927Z,12.17
2019-03-30T15:31:17.389Z,13.40
2019-03-30T15:33:45.861Z,12.93
2019-03-30T15:36:14.375Z,11.70
2019-03-30T15:38:42.845Z,11.97
2019-03-30T15:41:11.307Z,11.57
2019-03-30T15:43:39.810Z,11.60
2019-03-30T15:46:08.401Z,10.50
2019-03-30T15:48:36.921Z,11.20
2019-03-30T15:51:05.427Z,11.60
2019-03-30T15:53:33.885Z,12.97
2019-03-30T15:56:02.416Z,13.47
2019-03-30T15:58:30.902Z,13.17
2019-03-30T16:00:59.374Z,13.27
2019-03-30T16:03:27.836Z,13.17
2019-03-30T16:05:56.342Z,13.93
2019-03-30T16:08:24.821Z,14.07
2019-03-30T16:10:53.293Z,14.53
2019-03-30T16:13:21.831Z,13.83
2019-03-30T16:15:50.346Z,13.40
2019-03-30T16:18:18.817Z,13.40
2019-03-30T16:20:47.330Z,14.03
2019-03-30T16:23:15.824Z,13.37
2019-03-30T16:25:44.298Z,12.10
2019-03-30T16:28:12.809Z,13.07
2019-03-30T16:30:41.347Z,14.00
2019-03-30T16:33:09.820Z,14.43
2019-03-30T16:35:38.333Z,15.10
2019-03-30T16:38:06.806Z,15.73
2019-03-30T16:40:35.269Z,14.37
2019-03-30T16:43:03.772Z,13.87
2019-03-30T16:45:32.239Z,13.77
2019-03-30T16:48:01.124Z,12.57
2019-03-30T16:50:29.628Z,12.73
2019-03-30T16:52:58.100Z,14.00
2019-03-30T16:55:26.582Z,16.20
2019-03-30T16:57:55.086Z,17.83
2019-03-30T17:00:23.565Z,22.07
2019-03-30T17:02:52.079Z,17.83
2019-03-30T17:05:20.568Z,14.53
2019-03-30T17:07:49.030Z,18.57
2019-03-30T17:10:17.555Z,20.53
2019-03-30T17:12:46.049Z,19.83
2019-03-30T17:15:14.982Z,15.67
2019-03-30T17:17:43.445Z,15.47
2019-03-30T17:20:12.135Z,17.77
2019-03-30T17:22:40.670Z,14.90
2019-03-30T17:25:09.215Z,18.03
2019-03-30T17:27:37.711Z,15.57
2019-03-30T17:30:09.400Z,20.10
2019-03-30T17:32:37.943Z,21.00
2019-03-30T17:35:07.148Z,25.27
2019-03-30T17:37:35.595Z,22.90
2019-03-30T17:40:08.157Z,19.43
2019-03-30T17:42:38.762Z,19.03
2019-03-30T17:45:09.134Z,23.57
2019-03-30T17:47:37.605Z,23.27
2019-03-30T17:50:07.659Z,21.10
2019-03-30T17:52:36.165Z,23.50
2019-03-30T17:55:04.978Z,25.10
2019-03-30T17:57:33.485Z,30.60
2019-03-30T18:00:01.957Z,42.40
2019-03-30T18:02:30.425Z,56.63
2019-03-30T18:04:58.953Z,60.00
2019-03-30T18:07:27.437Z,34.00
2019-03-30T18:09:55.900Z,29.17
2019-03-30T18:12:24.389Z,34.90
2019-03-30T18:14:52.863Z,26.23
2019-03-30T18:17:21.402Z,23.07
2019-03-30T18:19:49.925Z,24.80
2019-03-30T18:22:18.394Z,25.40
2019-03-30T18:24:46.866Z,20.27
2019-03-30T18:27:15.420Z,23.80
2019-03-30T18:29:43.984Z,27.07
2019-03-30T18:32:12.462Z,22.60
2019-03-30T18:34:41.545Z,16.87
2019-03-30T18:37:10.167Z,17.10
2019-03-30T18:39:38.640Z,14.53
2019-03-30T18:42:07.159Z,18.50
2019-03-30T18:44:35.894Z,18.67
2019-03-30T18:47:04.350Z,21.07
2019-03-30T18:49:32.846Z,20.93
2019-03-30T18:52:05.426Z,21.20
2019-03-30T18:54:34.132Z,27.53
2019-03-30T18:57:02.841Z,47.53
2019-03-30T18:59:31.318Z,42.17
2019-03-30T19:01:59.791Z,30.43
2019-03-30T19:04:28.285Z,21.90
2019-03-30T19:06:56.749Z,18.97
2019-03-30T19:09:25.229Z,18.17
2019-03-30T19:11:53.742Z,16.47
2019-03-30T19:14:22.222Z,18.37
2019-03-30T19:16:50.696Z,19.17
2019-03-30T19:19:19.242Z,26.17
2019-03-30T19:21:47.690Z,20.07
2019-03-30T19:24:16.158Z,19.10
2019-03-30T19:26:44.648Z,24.77
2019-03-30T19:29:13.209Z,24.73
2019-03-30T19:31:41.663Z,24.43
2019-03-30T19:34:10.164Z,25.83
2019-03-30T19:36:38.638Z,25.50
2019-03-30T19:39:08.664Z,24.03
2019-03-30T19:41:37.170Z,26.60
2019-03-30T19:44:05.638Z,25.13
2019-03-30T19:46:35.349Z,28.13
2019-03-30T19:49:03.914Z,25.93
2019-03-30T19:51:32.397Z,27.37
2019-03-30T19:54:01.866Z,29.53
2019-03-30T19:56:30.371Z,26.53
2019-03-30T19:59:10.134Z,25.67
2019-03-30T20:01:29.421Z,24.60
2019-03-30T20:03:57.930Z,22.80
2019-03-30T20:06:26.400Z,24.40
2019-03-30T20:08:54.884Z,22.60
2019-03-30T20:11:23.485Z,21.10
2019-03-30T20:13:51.954Z,21.83
2019-03-30T20:16:20.416Z,21.93
2019-03-30T20:18:48.924Z,21.43
2019-03-30T20:21:17.458Z,22.20
2019-03-30T20:23:45.922Z,24.80
2019-03-30T20:26:14.446Z,24.53
2019-03-30T20:28:42.914Z,21.40
2019-03-30T20:31:11.395Z,22.27
2019-03-30T20:33:39.892Z,22.00
2019-03-30T20:36:08.364Z,24.23
2019-03-30T20:38:36.823Z,23.70
2019-03-30T20:41:05.335Z,22.10
2019-03-30T20:43:33.791Z,22.10
2019-03-30T20:46:02.270Z,24.57
2019-03-30T20:48:30.793Z,26.93
2019-03-30T20:50:59.261Z,26.30
2019-03-30T20:53:27.808Z,26.53
2019-03-30T20:55:57.613Z,26.07
2019-03-30T20:58:26.082Z,25.20
2019-03-30T21:00:54.554Z,23.70
2019-03-30T21:03:23.160Z,25.67
2019-03-30T21:05:51.632Z,24.93
2019-03-30T21:08:20.117Z,24.10
2019-03-30T21:10:48.625Z,26.27
2019-03-30T21:13:17.088Z,26.40
2019-03-30T21:15:45.679Z,24.60
2019-03-30T21:18:14.191Z,24.10
2019-03-30T21:20:42.671Z,21.60
2019-03-30T21:23:11.155Z,18.43
2019-03-30T21:25:39.670Z,21.93
2019-03-30T21:28:08.151Z,26.43
2019-03-30T21:30:36.614Z,29.70
2019-03-30T21:33:05.203Z,32.47
2019-03-30T21:35:33.673Z,29.80
2019-03-30T21:38:02.154Z,34.03
2019-03-30T21:40:30.643Z,33.67
2019-03-30T21:42:59.113Z,29.17
2019-03-30T21:45:27.593Z,25.20
2019-03-30T21:47:56.110Z,28.97
2019-03-30T21:50:24.590Z,22.60
2019-03-30T21:52:53.068Z,24.83
2019-03-30T21:55:21.573Z,24.80
2019-03-30T21:57:51.902Z,22.33
2019-03-30T22:00:37.475Z,23.27
2019-03-30T22:03:06.207Z,23.40
2019-03-30T22:05:35.243Z,21.20
2019-03-30T22:08:04.664Z,21.10
2019-03-30T22:10:33.125Z,21.47
2019-03-30T22:13:01.594Z,21.90
2019-03-30T22:15:30.378Z,19.57
2019-03-30T22:17:58.853Z,19.63
2019-03-30T22:20:27.378Z,18.23
2019-03-30T22:22:55.877Z,19.87
2019-03-30T22:25:24.338Z,19.47
2019-03-30T22:27:52.806Z,18.23
2019-03-30T22:30:24.934Z,21.93
2019-03-30T22:32:51.521Z,18.33
2019-03-30T22:35:19.987Z,22.60
2019-03-30T22:37:48.485Z,19.43
2019-03-30T22:40:16.948Z,21.67
2019-03-30T22:42:45.416Z,21.27
2019-03-30T22:45:13.905Z,23.43
2019-03-30T22:47:42.371Z,24.97
2019-03-30T22:50:11.080Z,28.23
2019-03-30T22:52:39.575Z,28.67
2019-03-30T22:55:08.588Z,28.10
2019-03-30T22:57:37.047Z,28.87
2019-03-30T23:00:07.487Z,27.40
2019-03-30T23:02:35.951Z,27.90
2019-03-30T23:05:04.867Z,30.20
2019-03-30T23:07:33.394Z,30.17
2019-03-30T23:10:01.934Z,30.30
2019-03-30T23:12:30.402Z,29.10
2019-03-30T23:14:58.920Z,29.57
2019-03-30T23:17:27.387Z,31.20
2019-03-30T23:19:55.862Z,31.50
2019-03-30T23:22:24.364Z,32.47
2019-03-30T23:24:52.843Z,31.30
2019-03-30T23:27:21.308Z,36.47
2019-03-30T23:29:49.816Z,36.53
2019-03-30T23:32:18.293Z,39.87
2019-03-30T23:34:46.752Z,35.50
2019-03-30T23:37:15.257Z,36.90
2019-03-30T23:39:43.725Z,35.97
2019-03-30T23:42:12.261Z,36.87
2019-03-30T23:44:40.749Z,43.50
2019-03-30T23:47:09.226Z,38.23
2019-03-30T23:49:37.708Z,40.53
2019-03-30T23:52:06.205Z,44.27
2019-03-30T23:54:34.677Z,47.17
2019-03-30T23:57:03.139Z,48.37
2019-03-30T23:59:31.662Z,51.80
